KAL054 PHNL-RKSI
Flight info
| Callsign | KAL054 |
|---|---|
| Flight time | N/A |
| Altitude | 34000 |
| Route | KEOLA3 PUPPI DCT CRESP DCT 23N170W 26N180E 29N170E 32N160E 35N150E DCT SEALS OTR13 LAPIL Y811 POROT Y809 LESPO Y806 INUBO Y16 SAPRA Y685 GUKDO GUKDO2E |
| Aircraft | B77W/H-SDE1E2E3FGHIJ2J3J4J5M1RWXY/LB1D1 |
Departure
| Time | 2026-05-04 01:05 |
|---|---|
| Airport | Daniel K. Inouye International Airport (PHNL) |
Arrival
| Time | N/A |
|---|---|
| Airport | Incheon International Airport (RKSI) |
| Time | Latitude | Longitude | Altitude | Speed | Heading |
|---|---|---|---|---|---|
| 2026-05-04 00:17 | 21.32886 | -157.92320 | 6 ft | 0 kts | 319° |
| 2026-05-04 00:18 | 21.32878 | -157.92312 | 28 ft | 0 kts | 319° |
| 2026-05-04 00:19 | 21.32881 | -157.92315 | 27 ft | 1 kts | 318° |
| 2026-05-04 00:19 | 21.32886 | -157.92320 | 28 ft | 0 kts | 318° |
| 2026-05-04 00:20 | 21.32852 | -157.92384 | 29 ft | 0 kts | 0° |
| 2026-05-04 00:21 | 21.32857 | -157.92384 | 29 ft | 1 kts | 0° |
| 2026-05-04 00:21 | 21.32868 | -157.92384 | 29 ft | 1 kts | 0° |
| 2026-05-04 00:21 | 21.32874 | -157.92384 | 29 ft | 0 kts | 0° |
| 2026-05-04 00:51 | 21.32858 | -157.92384 | 28 ft | 4 kts | 360° |
| 2026-05-04 00:51 | 21.32831 | -157.92383 | 28 ft | 4 kts | 359° |
| 2026-05-04 00:51 | 21.32805 | -157.92383 | 28 ft | 4 kts | 348° |
| 2026-05-04 00:51 | 21.32785 | -157.92374 | 27 ft | 4 kts | 317° |
| 2026-05-04 00:52 | 21.32774 | -157.92358 | 28 ft | 4 kts | 277° |
| 2026-05-04 00:52 | 21.32773 | -157.92336 | 29 ft | 4 kts | 270° |
| 2026-05-04 00:52 | 21.32772 | -157.92314 | 29 ft | 1 kts | 270° |
| 2026-05-04 00:53 | 21.32773 | -157.92314 | 29 ft | 0 kts | 270° |
| 2026-05-04 00:55 | 21.32773 | -157.92323 | 29 ft | 4 kts | 270° |
| 2026-05-04 00:55 | 21.32773 | -157.92374 | 29 ft | 10 kts | 270° |
| 2026-05-04 00:55 | 21.32773 | -157.92458 | 29 ft | 11 kts | 270° |
| 2026-05-04 00:56 | 21.32773 | -157.92542 | 29 ft | 11 kts | 270° |
| 2026-05-04 00:56 | 21.32773 | -157.92626 | 29 ft | 11 kts | 270° |
| 2026-05-04 00:56 | 21.32770 | -157.92709 | 29 ft | 11 kts | 260° |
| 2026-05-04 00:56 | 21.32747 | -157.92790 | 29 ft | 11 kts | 256° |
| 2026-05-04 00:57 | 21.32742 | -157.92878 | 29 ft | 13 kts | 269° |
| 2026-05-04 00:57 | 21.32742 | -157.92985 | 29 ft | 15 kts | 270° |
| 2026-05-04 00:57 | 21.32741 | -157.93110 | 29 ft | 18 kts | 270° |
| 2026-05-04 00:57 | 21.32742 | -157.93247 | 29 ft | 19 kts | 270° |
| 2026-05-04 00:58 | 21.32742 | -157.93386 | 29 ft | 19 kts | 270° |
| 2026-05-04 00:58 | 21.32742 | -157.93524 | 29 ft | 19 kts | 270° |
| 2026-05-04 00:58 | 21.32742 | -157.93663 | 29 ft | 19 kts | 270° |
| 2026-05-04 00:58 | 21.32742 | -157.93803 | 29 ft | 19 kts | 269° |
| 2026-05-04 00:59 | 21.32741 | -157.93930 | 29 ft | 12 kts | 270° |
| 2026-05-04 00:59 | 21.32739 | -157.94017 | 29 ft | 12 kts | 259° |
| 2026-05-04 00:59 | 21.32692 | -157.94085 | 29 ft | 12 kts | 211° |
| 2026-05-04 00:59 | 21.32621 | -157.94129 | 29 ft | 12 kts | 210° |
| 2026-05-04 01:00 | 21.32549 | -157.94171 | 29 ft | 12 kts | 208° |
| 2026-05-04 01:00 | 21.32451 | -157.94229 | 29 ft | 21 kts | 208° |
| 2026-05-04 01:00 | 21.32321 | -157.94306 | 29 ft | 21 kts | 209° |
| 2026-05-04 01:00 | 21.32192 | -157.94384 | 29 ft | 21 kts | 209° |
| 2026-05-04 01:01 | 21.32062 | -157.94462 | 29 ft | 21 kts | 209° |
| 2026-05-04 01:01 | 21.31932 | -157.94540 | 29 ft | 21 kts | 209° |
| 2026-05-04 01:01 | 21.31802 | -157.94617 | 29 ft | 21 kts | 209° |
| 2026-05-04 01:01 | 21.31663 | -157.94656 | 29 ft | 21 kts | 175° |
| 2026-05-04 01:02 | 21.31515 | -157.94638 | 29 ft | 21 kts | 173° |
| 2026-05-04 01:02 | 21.31368 | -157.94619 | 29 ft | 21 kts | 173° |
| 2026-05-04 01:02 | 21.31220 | -157.94600 | 29 ft | 21 kts | 173° |
| 2026-05-04 01:02 | 21.31073 | -157.94581 | 29 ft | 21 kts | 173° |
| 2026-05-04 01:03 | 21.30925 | -157.94567 | 29 ft | 21 kts | 179° |
| 2026-05-04 01:03 | 21.30801 | -157.94567 | 29 ft | 11 kts | 180° |
| 2026-05-04 01:03 | 21.30741 | -157.94567 | 29 ft | 8 kts | 180° |
| 2026-05-04 01:03 | 21.30698 | -157.94565 | 29 ft | 5 kts | 166° |
| 2026-05-04 01:04 | 21.30686 | -157.94541 | 29 ft | 2 kts | 93° |
| 2026-05-04 01:04 | 21.30686 | -157.94536 | 29 ft | 0 kts | 92° |
| 2026-05-04 01:04 | 21.30685 | -157.94532 | 29 ft | 6 kts | 92° |
| 2026-05-04 01:04 | 21.30680 | -157.94264 | 33 ft | 71 kts | 90° |
| 2026-05-04 01:05 | 21.30682 | -157.93488 | 28 ft | 135 kts | 89° |
| 2026-05-04 01:05 | 21.30689 | -157.92287 | 36 ft | 182 kts | 88° |
| 2026-05-04 01:05 | 21.30662 | -157.90939 | 608 ft | 182 kts | 90° |
| 2026-05-04 01:05 | 21.30225 | -157.89660 | 1202 ft | 190 kts | 126° |
| 2026-05-04 01:06 | 21.29121 | -157.88879 | 1856 ft | 195 kts | 157° |
| 2026-05-04 01:06 | 21.27743 | -157.88596 | 2234 ft | 206 kts | 165° |
| 2026-05-04 01:06 | 21.26298 | -157.88408 | 2654 ft | 216 kts | 168° |
| 2026-05-04 01:06 | 21.24726 | -157.88225 | 2870 ft | 238 kts | 169° |
| 2026-05-04 01:07 | 21.23008 | -157.88030 | 3221 ft | 253 kts | 169° |
| 2026-05-04 01:07 | 21.21260 | -157.87831 | 3836 ft | 258 kts | 169° |
| 2026-05-04 01:07 | 21.19449 | -157.87617 | 4419 ft | 265 kts | 169° |
| 2026-05-04 01:07 | 21.17595 | -157.87674 | 4955 ft | 275 kts | 196° |
| 2026-05-04 01:08 | 21.15985 | -157.88802 | 5526 ft | 284 kts | 231° |
| 2026-05-04 01:08 | 21.15147 | -157.90730 | 6165 ft | 289 kts | 261° |
| 2026-05-04 01:08 | 21.15108 | -157.92876 | 6816 ft | 291 kts | 278° |
| 2026-05-04 01:08 | 21.15512 | -157.94989 | 7575 ft | 288 kts | 285° |
| 2026-05-04 01:09 | 21.16050 | -157.97048 | 8191 ft | 292 kts | 287° |
| 2026-05-04 01:09 | 21.16634 | -157.99144 | 8882 ft | 293 kts | 287° |
| 2026-05-04 01:09 | 21.17221 | -158.01246 | 9585 ft | 294 kts | 287° |
| 2026-05-04 01:09 | 21.17804 | -158.03357 | 10213 ft | 297 kts | 287° |
| 2026-05-04 01:10 | 21.18392 | -158.05510 | 10475 ft | 315 kts | 287° |
| 2026-05-04 01:10 | 21.19022 | -158.07849 | 10638 ft | 336 kts | 286° |
| 2026-05-04 01:10 | 21.19686 | -158.10338 | 10796 ft | 357 kts | 286° |
| 2026-05-04 01:10 | 21.20384 | -158.12976 | 11049 ft | 374 kts | 286° |
| 2026-05-04 01:11 | 21.21094 | -158.15670 | 11584 ft | 382 kts | 286° |
| 2026-05-04 01:11 | 21.21820 | -158.18435 | 12274 ft | 387 kts | 285° |
| 2026-05-04 01:11 | 21.22551 | -158.21226 | 13140 ft | 388 kts | 285° |
| 2026-05-04 01:11 | 21.23283 | -158.24022 | 13905 ft | 391 kts | 285° |
| 2026-05-04 01:12 | 21.24022 | -158.26846 | 14540 ft | 395 kts | 285° |
| 2026-05-04 01:12 | 21.24765 | -158.29689 | 15257 ft | 397 kts | 285° |
| 2026-05-04 01:12 | 21.25512 | -158.32550 | 15914 ft | 400 kts | 285° |
| 2026-05-04 01:12 | 21.26264 | -158.35429 | 16614 ft | 402 kts | 285° |
| 2026-05-04 01:13 | 21.27024 | -158.38343 | 17201 ft | 408 kts | 285° |